Time;durP1;ratioP1;P1;durP2;ratioP2;P2;SDS_P1;SDS_P2;PMS_P1;PMS_P2;Temp;Humidity;BMP_temperature;BMP_pressure;BME280_temperature;BME280_humidity;BME280_pressure;Samples;Min_cycle;Max_cycle;Signal;HPM_P1;HPM_P2
2020/12/23 00:00:06;;;;;;;2.90;2.17;;;10.50;99.90;;;8.38;100.00;100245.13;4940162;28;100360;-68
2020/12/23 00:02:37;;;;;;;2.90;1.50;;;10.50;99.90;;;8.38;100.00;100247.81;4961684;28;100031;-64
2020/12/23 00:05:06;;;;;;;1.63;1.50;;;10.60;99.90;;;8.33;100.00;100242.06;4920437;28;100156;-66
2020/12/23 00:07:32;;;;;;;1.73;1.40;;;10.40;99.90;;;8.28;100.00;100234.44;4883650;28;100899;-65
2020/12/23 00:09:59;;;;;;;1.53;1.40;;;10.40;99.90;;;8.23;100.00;100249.22;4883390;28;100101;-65
2020/12/23 00:12:26;;;;;;;2.37;1.70;;;10.40;99.90;;;8.30;100.00;100258.28;4883651;28;100098;-65
2020/12/23 00:14:53;;;;;;;2.00;1.23;;;10.30;99.90;;;8.25;100.00;100266.75;4882581;28;100846;-65
2020/12/23 00:17:19;;;;;;;5.63;3.00;;;10.30;99.90;;;8.23;100.00;100279.38;4883271;28;100557;-65
2020/12/23 00:19:46;;;;;;;6.73;4.47;;;10.40;99.90;;;8.24;100.00;100283.72;4924500;28;100260;-65
2020/12/23 00:22:15;;;;;;;5.70;3.00;;;10.50;99.90;;;8.22;100.00;100296.34;4963107;28;100042;-64
2020/12/23 00:24:41;;;;;;;4.30;2.67;;;10.30;99.90;;;8.18;100.00;100307.44;4962728;28;101202;-65
2020/12/23 00:27:08;;;;;;;3.70;2.50;;;10.20;99.90;;;8.11;100.00;100307.16;4963901;28;100130;-64
2020/12/23 00:29:35;;;;;;;2.87;2.17;;;10.30;99.90;;;8.10;100.00;100318.81;4962492;28;100120;-64
2020/12/23 00:32:02;;;;;;;1.70;1.60;;;10.30;99.90;;;8.11;100.00;100317.81;4964463;28;100105;-64
2020/12/23 00:34:29;;;;;;;3.37;1.63;;;10.20;99.90;;;8.04;100.00;100306.03;4884138;28;101757;-66
2020/12/23 00:36:56;;;;;;;2.13;1.93;;;10.00;99.90;;;8.01;100.00;100311.66;4882665;28;100266;-62
2020/12/23 00:39:23;;;;;;;4.60;2.10;;;10.10;99.90;;;7.94;100.00;100310.53;4882400;28;100201;-60
2020/12/23 00:41:50;;;;;;;2.27;1.90;;;10.10;99.90;;;7.91;100.00;100308.16;4882885;28;100212;-62
2020/12/23 00:44:17;;;;;;;3.00;2.00;;;9.90;99.90;;;7.84;100.00;100304.38;4864708;28;102823;-64
2020/12/23 00:46:46;;;;;;;5.63;2.80;;;9.90;99.90;;;7.73;100.00;100302.69;4882323;28;100358;-62
2020/12/23 00:49:13;;;;;;;2.80;2.10;;;9.90;99.90;;;7.71;100.00;100303.81;4940591;28;100141;-64
2020/12/23 00:51:39;;;;;;;2.50;1.97;;;9.60;99.90;;;7.68;100.00;100301.41;4963498;28;100168;-64
2020/12/23 00:54:06;;;;;;;2.27;2.07;;;8.30;99.90;;;7.62;100.00;100299.31;4945206;28;103760;-64
2020/12/23 00:56:36;;;;;;;2.20;2.00;;;10.70;99.90;;;7.56;100.00;100300.69;4945438;28;102296;-66
2020/12/23 00:59:03;;;;;;;2.47;2.03;;;10.50;99.90;;;7.56;100.00;100309.53;4963954;28;99936;-65
2020/12/23 01:01:29;;;;;;;4.67;2.27;;;9.50;99.90;;;7.51;100.00;100311.78;4957715;28;100177;-65
2020/12/23 01:03:56;;;;;;;3.83;2.20;;;9.50;99.90;;;7.49;100.00;100307.56;4963641;28;101456;-64
2020/12/23 01:06:23;;;;;;;4.00;2.67;;;9.50;99.90;;;7.48;100.00;100301.41;4892653;28;101094;-64
2020/12/23 01:08:49;;;;;;;2.47;2.20;;;9.40;99.90;;;7.48;100.00;100319.19;4883075;28;100081;-65
2020/12/23 01:11:16;;;;;;;4.30;2.60;;;9.50;99.90;;;7.48;100.00;100327.19;4882191;28;100144;-64
2020/12/23 01:13:42;;;;;;;3.47;2.80;;;9.30;99.90;;;7.43;100.00;100316.09;4882965;28;101158;-65
2020/12/23 01:16:09;;;;;;;3.40;2.70;;;9.50;99.90;;;7.43;100.00;100314.28;4882691;28;100865;-64
2020/12/23 01:18:36;;;;;;;6.63;2.70;;;9.30;99.90;;;7.40;100.00;100311.91;4882941;28;100112;-64
2020/12/23 01:21:03;;;;;;;4.80;3.20;;;9.50;99.90;;;7.37;100.00;100309.50;4930238;28;100293;-64
2020/12/23 01:23:29;;;;;;;3.37;3.03;;;9.60;99.90;;;7.35;100.00;100310.63;4963540;28;100877;-65
2020/12/23 01:25:56;;;;;;;3.47;3.17;;;9.30;99.90;;;7.34;100.00;100304.44;4963081;28;100031;-64
2020/12/23 01:28:23;;;;;;;3.73;2.93;;;9.30;99.90;;;7.34;100.00;100301.78;4963217;28;99939;-64
2020/12/23 01:30:49;;;;;;;4.37;3.23;;;9.20;99.90;;;7.32;100.00;100297.59;4956934;28;100201;-64
2020/12/23 01:33:16;;;;;;;4.27;3.23;;;9.50;99.90;;;7.32;100.00;100294.91;4963947;28;100966;-63
2020/12/23 01:35:43;;;;;;;3.53;3.20;;;9.00;99.90;;;7.29;100.00;100296.06;4964867;28;101440;-64
2020/12/23 01:38:11;;;;;;;4.53;3.10;;;10.10;99.90;;;7.29;100.00;100303.19;4893078;28;100356;-64
2020/12/23 01:40:37;;;;;;;5.07;3.27;;;9.20;99.90;;;7.22;100.00;100293.09;4884977;28;100563;-64
2020/12/23 01:43:07;;;;;;;3.40;2.87;;;9.20;99.90;;;7.20;100.00;100297.69;4885395;28;100644;-62
2020/12/23 01:45:34;;;;;;;3.97;2.93;;;9.10;99.90;;;7.19;100.00;100292.50;4885364;28;100687;-64
2020/12/23 01:48:01;;;;;;;4.97;3.30;;;9.00;99.90;;;7.16;100.00;100295.47;4866889;28;100382;-63
2020/12/23 01:50:27;;;;;;;3.67;3.27;;;9.10;99.90;;;7.19;100.00;100293.34;4885295;28;100129;-63
2020/12/23 01:52:54;;;;;;;3.73;3.07;;;9.10;99.90;;;7.16;100.00;100285.66;4884583;28;100813;-64
2020/12/23 01:55:22;;;;;;;3.23;2.83;;;8.90;99.90;;;7.19;100.00;100292.50;4885126;28;100646;-63
2020/12/23 01:57:48;;;;;;;3.50;3.00;;;9.00;99.90;;;7.17;100.00;100294.50;4905802;28;100383;-63
2020/12/23 02:00:14;;;;;;;4.23;3.57;;;9.20;99.90;;;7.17;100.00;100284.66;4965163;28;100193;-63
2020/12/23 02:02:43;;;;;;;4.20;3.30;;;9.10;99.90;;;7.16;100.00;100285.66;4966246;28;101602;-62
2020/12/23 02:05:10;;;;;;;6.83;3.40;;;9.10;99.90;;;7.14;100.00;100278.78;4966013;28;101493;-63
2020/12/23 02:07:38;;;;;;;3.70;3.30;;;9.10;99.90;;;7.08;100.00;100282.81;4966971;28;99975;-64
2020/12/23 02:10:07;;;;;;;3.47;3.10;;;9.10;99.90;;;7.14;100.00;100278.78;4966559;28;100166;-64
2020/12/23 02:12:35;;;;;;;5.33;3.23;;;9.10;99.90;;;7.13;100.00;100279.75;4966194;28;100849;-63
2020/12/23 02:15:10;;;;;;;3.77;3.30;;;9.00;99.90;;;7.15;100.00;100291.13;4933406;28;100675;-65
2020/12/23 02:17:37;;;;;;;4.43;3.37;;;9.20;99.90;;;7.13;100.00;100288.59;4884337;28;100018;-64
2020/12/23 02:20:06;;;;;;;5.13;3.87;;;9.10;99.90;;;7.16;100.00;100290.97;4885192;28;100046;-63
2020/12/23 02:22:33;;;;;;;5.20;3.60;;;9.00;99.90;;;7.12;100.00;100278.06;4885238;28;101880;-60
2020/12/23 02:25:00;;;;;;;4.70;3.20;;;10.00;99.90;;;7.17;100.00;100275.88;4898186;28;100423;-63
2020/12/23 02:27:27;;;;;;;4.97;3.90;;;9.10;99.90;;;7.18;100.00;100264.22;4965739;28;99986;-63
2020/12/23 02:29:55;;;;;;;5.03;4.13;;;9.10;99.90;;;7.11;100.00;100273.72;4966006;28;100298;-62
2020/12/23 02:32:22;;;;;;;5.07;4.20;;;9.10;99.90;;;7.10;100.00;100272.88;4966190;28;101437;-63
2020/12/23 02:34:50;;;;;;;4.60;3.47;;;9.20;99.90;;;7.04;100.00;100270.78;4962184;28;100507;-64
2020/12/23 02:37:18;;;;;;;4.97;4.03;;;9.20;99.90;;;7.07;100.00;100267.84;4885338;28;100270;-62
2020/12/23 02:39:48;;;;;;;5.47;3.93;;;9.30;99.90;;;7.10;100.00;100264.06;4927840;28;100185;-63
2020/12/23 02:42:16;;;;;;;4.20;3.30;;;9.60;99.90;;;7.19;100.00;100274.72;4891224;28;100752;-63
2020/12/23 02:44:43;;;;;;;4.17;3.70;;;9.10;99.90;;;7.12;100.00;100260.28;4890105;28;100083;-63
2020/12/23 02:47:11;;;;;;;8.00;4.23;;;9.40;99.90;;;7.02;100.00;100242.63;4884298;28;100203;-64
2020/12/23 02:49:38;;;;;;;4.07;3.57;;;9.30;99.90;;;7.07;100.00;100251.88;4884657;28;100041;-62
2020/12/23 02:52:05;;;;;;;4.27;3.33;;;10.00;99.90;;;7.08;100.00;100260.69;4884550;28;101863;-63
2020/12/23 02:54:32;;;;;;;5.53;3.90;;;9.30;99.90;;;7.09;100.00;100273.03;4895745;28;100603;-63
2020/12/23 02:56:59;;;;;;;3.73;3.27;;;9.20;99.90;;;7.07;100.00;100272.31;4885019;28;100090;-63
2020/12/23 02:59:26;;;;;;;6.13;3.73;;;9.20;99.90;;;7.11;100.00;100266.59;4915942;28;100051;-63
2020/12/23 03:01:52;;;;;;;6.20;3.90;;;9.20;99.90;;;6.96;100.00;100270.59;4965241;28;101680;-64
2020/12/23 03:04:19;;;;;;;4.40;4.00;;;9.40;99.90;;;6.99;100.00;100274.81;4965264;28;101262;-63
2020/12/23 03:06:46;;;;;;;4.60;3.70;;;9.30;99.90;;;6.97;100.00;100268.78;4925420;28;99894;-63
2020/12/23 03:09:13;;;;;;;6.40;3.93;;;9.60;99.90;;;7.00;100.00;100258.72;4884699;28;100141;-64
2020/12/23 03:11:41;;;;;;;4.40;4.00;;;8.70;99.90;;;6.98;100.00;100258.00;4889659;28;100622;-63
2020/12/23 03:14:09;;;;;;;4.50;3.87;;;9.30;99.90;;;7.06;100.00;100260.81;4866348;28;101371;-64
2020/12/23 03:16:36;;;;;;;5.30;3.93;;;9.30;99.90;;;7.06;100.00;100260.81;4884846;28;99949;-63
2020/12/23 03:19:03;;;;;;;6.13;3.73;;;9.20;99.90;;;7.08;100.00;100260.69;4891423;28;100040;-63
2020/12/23 03:21:30;;;;;;;5.70;4.03;;;10.50;99.90;;;7.09;100.00;100252.56;4958590;28;100548;-63
2020/12/23 03:23:56;;;;;;;4.77;3.97;;;9.50;99.90;;;6.97;100.00;100253.66;4885171;28;100599;-63
2020/12/23 03:26:23;;;;;;;4.70;3.33;;;9.40;99.90;;;6.89;100.00;100250.00;4884243;28;100292;-65
2020/12/23 03:28:49;;;;;;;11.30;3.70;;;9.40;99.90;;;6.89;100.00;100240.22;4884443;28;100369;-63
2020/12/23 03:31:17;;;;;;;3.83;3.43;;;9.40;99.90;;;6.89;100.00;100234.91;4883240;28;100676;-63
2020/12/23 03:33:44;;;;;;;4.97;3.63;;;9.50;99.90;;;6.90;100.00;100233.06;4889562;28;100859;-63
2020/12/23 03:36:11;;;;;;;6.00;4.10;;;9.70;99.90;;;6.84;100.00;100232.63;4865718;28;100136;-64
2020/12/23 03:38:38;;;;;;;8.33;3.80;;;9.10;99.90;;;6.88;100.00;100232.38;4884015;28;99952;-63
2020/12/23 03:41:04;;;;;;;7.03;3.90;;;9.00;99.90;;;6.89;100.00;100240.22;4884778;28;101185;-63
2020/12/23 03:43:31;;;;;;;16.87;4.53;;;9.00;99.90;;;6.92;100.00;100236.44;4883400;28;101805;-63
2020/12/23 03:45:57;;;;;;;6.37;3.60;;;9.30;99.90;;;6.85;100.00;100228.16;4928953;28;100057;-63
2020/12/23 03:48:25;;;;;;;15.27;4.30;;;9.20;99.90;;;6.90;100.00;100225.09;4964862;28;100044;-64
2020/12/23 03:50:51;;;;;;;4.43;3.93;;;9.10;99.90;;;6.89;100.00;100221.59;4924431;28;100976;-63
2020/12/23 03:53:17;;;;;;;4.70;3.23;;;9.10;99.90;;;7.00;100.00;100226.81;4884005;28;100218;-63
2020/12/23 03:55:44;;;;;;;5.00;3.10;;;9.20;99.90;;;7.02;100.00;100237.31;4891969;28;101316;-63
2020/12/23 03:58:10;;;;;;;5.17;3.70;;;10.20;99.90;;;6.97;100.00;100237.72;4963782;28;100133;-63
2020/12/23 04:00:37;;;;;;;4.20;3.53;;;9.30;99.90;;;6.89;100.00;100228.72;4925049;28;100894;-65
2020/12/23 04:03:03;;;;;;;4.67;3.30;;;9.30;99.90;;;6.92;100.00;100228.47;4883583;28;100624;-65
2020/12/23 04:05:31;;;;;;;5.63;3.97;;;9.10;99.90;;;6.93;100.00;100236.28;4884358;28;100205;-62
2020/12/23 04:07:57;;;;;;;5.30;3.43;;;9.30;99.90;;;7.04;100.00;100235.34;4884018;28;100451;-65
2020/12/23 04:10:24;;;;;;;5.07;4.30;;;9.60;99.90;;;7.01;100.00;100232.97;4884069;28;100894;-63
2020/12/23 04:12:50;;;;;;;4.50;3.73;;;9.70;99.90;;;7.03;100.00;100244.31;4883584;28;100524;-63
2020/12/23 04:15:17;;;;;;;6.27;4.17;;;10.50;99.90;;;7.07;100.00;100246.53;4940711;28;99953;-62
2020/12/23 04:17:43;;;;;;;5.33;4.17;;;9.30;99.90;;;7.09;100.00;100251.72;4963933;28;100316;-63
2020/12/23 04:20:10;;;;;;;5.87;4.70;;;9.50;99.90;;;7.09;100.00;100241.09;4906109;28;101728;-64
2020/12/23 04:22:37;;;;;;;4.83;4.20;;;10.40;99.90;;;7.12;100.00;100236.34;4963251;28;101214;-64
2020/12/23 04:25:06;;;;;;;4.93;4.43;;;9.30;99.90;;;7.09;100.00;100241.94;4964703;28;99877;-64
2020/12/23 04:27:34;;;;;;;6.63;5.07;;;9.30;99.90;;;7.08;100.00;100237.59;4964606;28;100172;-63
2020/12/23 04:30:01;;;;;;;4.50;3.67;;;10.50;99.90;;;6.99;100.00;100232.25;4939127;28;101467;-64
2020/12/23 04:32:27;;;;;;;4.60;3.57;;;9.60;99.90;;;6.99;100.00;100237.56;4883046;28;102206;-64
2020/12/23 04:34:54;;;;;;;5.53;3.40;;;9.50;99.90;;;7.09;100.00;100244.59;4958637;28;100178;-64
2020/12/23 04:37:23;;;;;;;5.10;4.50;;;9.40;99.90;;;6.98;100.00;100244.72;4963341;28;100148;-65
2020/12/23 04:39:50;;;;;;;5.87;3.90;;;9.50;99.90;;;7.10;100.00;100254.25;4963353;28;101157;-64
2020/12/23 04:42:17;;;;;;;6.50;5.53;;;9.40;99.90;;;7.07;100.00;100251.03;4945067;28;101129;-64
2020/12/23 04:44:44;;;;;;;7.63;5.20;;;9.40;99.90;;;6.94;100.00;100245.94;4939588;28;100044;-64
2020/12/23 04:47:15;;;;;;;12.63;9.77;;;9.40;99.90;;;6.90;100.00;100249.88;4883120;28;100434;-64
2020/12/23 04:49:46;;;;;;;24.60;20.83;;;10.30;99.90;;;6.87;100.00;100250.16;4936255;28;101785;-65
2020/12/23 04:52:14;;;;;;;14.87;12.90;;;9.50;99.90;;;6.83;100.00;100243.41;4963919;28;100333;-64
2020/12/23 04:54:41;;;;;;;9.83;8.83;;;9.40;99.90;;;6.85;100.00;100252.09;4962991;28;100058;-64
2020/12/23 04:57:10;;;;;;;6.30;5.70;;;9.40;99.90;;;6.85;100.00;100247.63;4963272;28;100277;-64
2020/12/23 04:59:36;;;;;;;5.17;4.60;;;9.30;99.90;;;6.82;100.00;100242.56;4963218;28;101024;-65
2020/12/23 05:02:02;;;;;;;5.70;4.70;;;9.40;99.90;;;6.79;100.00;100232.22;4963735;28;100977;-64
2020/12/23 05:04:29;;;;;;;5.10;4.60;;;10.50;99.90;;;6.78;100.00;100235.84;4963604;28;100261;-64
2020/12/23 05:07:04;;;;;;;5.33;4.70;;;9.40;99.90;;;6.84;100.00;100231.78;4963390;28;100082;-63
2020/12/23 05:09:31;;;;;;;7.13;3.93;;;9.90;99.90;;;6.83;100.00;100230.09;4953049;28;101542;-64
2020/12/23 05:11:59;;;;;;;6.70;4.27;;;10.10;99.90;;;6.81;100.00;100235.56;4966619;28;101284;-63
2020/12/23 05:14:27;;;;;;;5.43;4.33;;;9.40;99.90;;;6.81;100.00;100237.38;4965501;28;99981;-63
2020/12/23 05:16:55;;;;;;;4.87;4.37;;;9.30;99.90;;;6.82;100.00;100247.03;4884986;28;100442;-64
2020/12/23 05:19:22;;;;;;;5.97;5.07;;;9.30;99.90;;;6.95;100.00;100239.66;4885502;28;100818;-64
2020/12/23 05:21:48;;;;;;;12.33;9.30;;;9.20;99.90;;;6.89;100.00;100240.22;4885220;28;100392;-64
2020/12/23 05:24:15;;;;;;;13.33;9.67;;;9.20;99.90;;;6.96;100.00;100245.81;4885310;28;100007;-64
2020/12/23 05:26:44;;;;;;;11.57;8.87;;;9.30;99.90;;;6.93;100.00;100240.75;4886245;28;100062;-63
2020/12/23 05:29:14;;;;;;;17.90;8.43;;;9.20;99.90;;;6.83;100.00;100238.94;4885787;28;100886;-64
2020/12/23 05:31:42;;;;;;;7.13;6.07;;;9.50;99.90;;;6.86;100.00;100243.13;4885645;28;100950;-64
2020/12/23 05:34:09;;;;;;;30.73;6.37;;;10.00;99.90;;;6.84;100.00;100242.44;4885515;28;100156;-64
2020/12/23 05:36:38;;;;;;;5.03;4.13;;;9.40;99.90;;;6.76;100.00;100243.13;4884766;28;100254;-64
2020/12/23 05:39:07;;;;;;;5.37;4.70;;;9.40;99.90;;;6.73;100.00;100235.41;4939836;28;100796;-64
2020/12/23 05:41:35;;;;;;;6.20;4.30;;;10.00;99.90;;;6.75;100.00;100233.44;4946915;28;103044;-64
2020/12/23 05:44:02;;;;;;;17.20;5.67;;;9.30;99.90;;;6.78;100.00;100232.34;4966627;28;100086;-64
2020/12/23 05:46:28;;;;;;;22.17;5.30;;;9.20;99.90;;;6.77;100.00;100236.81;4960389;28;100058;-64
2020/12/23 05:48:56;;;;;;;5.07;4.40;;;9.10;99.90;;;6.84;100.00;100229.97;4966211;28;101175;-65
2020/12/23 05:51:22;;;;;;;6.63;4.87;;;9.00;99.90;;;6.83;100.00;100224.78;4922586;28;100629;-64
2020/12/23 05:53:49;;;;;;;6.57;5.13;;;9.10;99.90;;;6.85;100.00;100228.16;4885345;28;100133;-65
2020/12/23 05:56:15;;;;;;;8.73;5.00;;;9.20;99.90;;;6.83;100.00;100219.47;4945522;28;100323;-64
2020/12/23 05:58:41;;;;;;;9.63;5.63;;;9.10;99.90;;;6.79;100.00;100224.25;4965575;28;101011;-64
2020/12/23 06:01:10;;;;;;;9.53;4.90;;;9.90;99.90;;;6.79;100.00;100226.91;4959745;28;101198;-64
2020/12/23 06:03:57;;;;;;;7.47;4.60;;;9.30;99.90;;;6.86;100.00;100232.50;4966600;28;99944;-64
2020/12/23 06:06:25;;;;;;;6.30;4.10;;;9.10;99.90;;;6.90;100.00;100222.44;4960554;28;100253;-64
2020/12/23 06:08:55;;;;;;;5.83;4.50;;;9.20;99.90;;;6.79;100.00;100234.88;4966269;28;101546;-64
2020/12/23 06:11:29;;;;;;;4.80;4.10;;;9.20;99.90;;;6.83;100.00;100225.63;4959909;28;100489;-64
2020/12/23 06:14:18;;;;;;;6.37;4.90;;;9.10;99.90;;;6.79;100.00;100226.91;4974377;28;100136;-64
2020/12/23 06:16:48;;;;;;;9.23;4.80;;;9.10;99.90;;;6.78;100.00;100227.88;4966578;28;100095;-64
2020/12/23 06:19:26;;;;;;;6.30;4.83;;;9.20;99.90;;;6.79;100.00;100228.72;4960941;28;100556;-64
2020/12/23 06:21:55;;;;;;;6.03;5.03;;;8.10;99.90;;;6.81;100.00;100229.38;4965015;28;101013;-64
2020/12/23 06:24:22;;;;;;;6.07;4.57;;;9.10;99.90;;;6.79;100.00;100234.88;4965646;28;100120;-64
2020/12/23 06:26:51;;;;;;;6.43;5.07;;;8.90;99.90;;;6.83;100.00;100236.25;4949126;28;100375;-63
2020/12/23 06:29:20;;;;;;;6.13;4.57;;;9.10;99.90;;;6.79;100.00;100229.56;4965547;28;101052;-65
2020/12/23 06:31:52;;;;;;;7.97;4.67;;;9.30;99.90;;;6.83;100.00;100230.09;4965455;28;100674;-63
2020/12/23 06:34:21;;;;;;;6.63;5.13;;;9.00;99.90;;;6.90;100.00;100241.06;4905895;28;100561;-64
2020/12/23 06:36:50;;;;;;;5.23;4.50;;;9.20;99.90;;;6.83;100.00;100257.53;4884480;28;100169;-64
2020/12/23 06:39:26;;;;;;;7.77;4.63;;;9.10;99.90;;;6.89;100.00;100253.50;4884522;28;100940;-65
2020/12/23 06:41:55;;;;;;;7.63;5.30;;;8.90;99.90;;;6.92;100.00;100257.72;4884975;28;100408;-66
2020/12/23 06:44:22;;;;;;;9.17;7.20;;;9.00;99.90;;;7.07;100.00;100254.53;4942363;28;100319;-64
2020/12/23 06:47:08;;;;;;;6.80;4.23;;;9.30;99.90;;;7.00;100.00;100248.09;4905099;28;100394;-64
2020/12/23 06:49:37;;;;;;;6.73;5.60;;;9.10;99.90;;;6.96;100.00;100253.81;4958710;28;101339;-64
2020/12/23 06:52:31;;;;;;;11.13;6.90;;;9.20;99.90;;;6.98;100.00;100255.34;4883896;28;101245;-64
2020/12/23 06:55:01;;;;;;;7.67;5.43;;;9.30;99.90;;;6.83;100.00;100257.53;4884988;28;100051;-64
2020/12/23 06:57:58;;;;;;;10.77;7.63;;;9.20;99.90;;;6.82;100.00;100260.34;4883939;28;102414;-65
2020/12/23 07:00:41;;;;;;;5.60;4.53;;;9.20;99.90;;;6.82;100.00;100261.19;4883119;28;101731;-63
2020/12/23 07:03:12;;;;;;;7.93;5.37;;;9.10;99.90;;;6.85;100.00;100266.22;4884224;28;100599;-63
2020/12/23 07:05:47;;;;;;;10.17;7.70;;;9.10;99.90;;;6.85;100.00;100263.56;4926612;28;100233;-64
2020/12/23 07:08:17;;;;;;;6.67;4.83;;;9.10;99.90;;;6.84;100.00;100275.19;4962769;28;100264;-63
2020/12/23 07:10:47;;;;;;;5.93;4.90;;;9.20;99.90;;;6.85;100.00;100278.69;4954227;28;101146;-63
2020/12/23 07:13:18;;;;;;;6.20;4.97;;;9.30;99.90;;;6.79;100.00;100268.59;4962913;28;100423;-63
2020/12/23 07:15:53;;;;;;;7.67;5.77;;;9.40;99.90;;;6.78;100.00;100262.44;4957468;28;100289;-63
2020/12/23 07:18:25;;;;;;;7.67;5.70;;;9.20;99.90;;;6.78;100.00;100270.41;4882070;28;100326;-63
2020/12/23 07:20:59;;;;;;;6.80;5.53;;;9.20;99.90;;;6.83;100.00;100275.31;4920521;28;101351;-63
2020/12/23 07:23:30;;;;;;;7.27;5.87;;;9.30;99.90;;;6.78;100.00;100274.91;4961634;28;101129;-62
2020/12/23 07:25:59;;;;;;;9.07;6.27;;;9.20;99.90;;;6.81;100.00;100266.63;4962216;28;100060;-63
2020/12/23 07:28:31;;;;;;;9.10;6.23;;;9.30;99.90;;;6.75;100.00;100265.38;4962270;28;100142;-63
2020/12/23 07:30:58;;;;;;;7.67;5.80;;;9.40;99.90;;;6.77;100.00;100263.41;4962185;28;101224;-63
2020/12/23 07:33:25;;;;;;;7.87;5.80;;;9.30;99.90;;;6.78;100.00;100270.41;4959115;28;100076;-63
2020/12/23 07:35:54;;;;;;;7.77;6.40;;;9.20;99.90;;;6.89;100.00;100273.94;4870170;28;100093;-65
2020/12/23 07:38:22;;;;;;;9.67;7.20;;;9.20;99.90;;;6.85;100.00;100279.53;4863718;28;100362;-63
2020/12/23 07:40:51;;;;;;;11.40;8.87;;;9.30;99.90;;;6.90;100.00;100280.97;4881028;28;100983;-63
2020/12/23 07:43:19;;;;;;;11.83;9.77;;;9.30;99.90;;;6.94;100.00;100277.03;4881751;28;101160;-64
2020/12/23 07:45:46;;;;;;;12.37;10.73;;;10.50;99.90;;;6.91;100.00;100282.66;4886571;28;101603;-64
2020/12/23 07:48:15;;;;;;;26.33;23.93;;;9.30;99.90;;;6.90;100.00;100279.13;4881501;28;100130;-64
2020/12/23 07:50:44;;;;;;;15.67;12.60;;;9.20;99.90;;;6.86;100.00;100280.38;4892528;28;101133;-64
2020/12/23 07:53:16;;;;;;;14.50;9.77;;;8.90;99.90;;;6.81;100.00;100282.59;4962485;28;100862;-63
2020/12/23 07:55:44;;;;;;;11.20;8.53;;;9.40;99.90;;;6.87;100.00;100284.72;4962017;28;100102;-63
2020/12/23 07:58:12;;;;;;;52.50;47.87;;;9.20;99.90;;;6.85;100.00;100292.84;4962527;28;100548;-63
2020/12/23 08:00:41;;;;;;;19.30;14.90;;;10.40;99.90;;;6.90;100.00;100289.78;4961269;28;100861;-63
2020/12/23 08:03:09;;;;;;;28.57;26.00;;;9.20;99.90;;;6.92;100.00;100289.66;4898774;28;101013;-64
2020/12/23 08:05:36;;;;;;;13.23;10.63;;;9.40;99.90;;;6.93;100.00;100281.50;4961756;28;99993;-64
2020/12/23 08:08:02;;;;;;;30.33;27.17;;;9.50;99.90;;;6.88;100.00;100282.91;4887015;28;101340;-63
2020/12/23 08:10:29;;;;;;;12.43;9.80;;;9.30;99.90;;;6.93;100.00;100286.81;4881237;28;101862;-64
2020/12/23 08:12:58;;;;;;;13.60;9.90;;;9.30;99.90;;;6.94;100.00;100287.66;4912681;28;100454;-63
2020/12/23 08:15:26;;;;;;;18.43;13.23;;;9.40;99.90;;;6.84;100.00;100287.63;4919523;28;100142;-63
2020/12/23 08:18:00;;;;;;;14.53;9.67;;;9.40;99.90;;;6.83;100.00;100284.13;4924624;28;100056;-63
2020/12/23 08:20:27;;;;;;;11.57;8.23;;;10.20;99.90;;;6.85;100.00;100281.34;4861842;28;100864;-64
2020/12/23 08:22:54;;;;;;;10.53;8.50;;;10.50;99.90;;;6.91;100.00;100278.16;4881041;28;101190;-63
2020/12/23 08:25:23;;;;;;;11.30;8.47;;;10.20;99.90;;;6.82;100.00;100273.63;4881393;28;100059;-63
2020/12/23 08:27:51;;;;;;;354.93;261.33;;;9.30;99.90;;;6.87;100.00;100270.56;4881309;28;100095;-63
2020/12/23 08:30:20;;;;;;;45.23;34.97;;;9.30;99.90;;;6.94;100.00;100272.56;4931836;28;100806;-64
2020/12/23 08:32:56;;;;;;;11.90;8.97;;;9.30;99.90;;;6.85;100.00;100262.72;4922850;28;100407;-63
2020/12/23 08:35:27;;;;;;;11.23;8.03;;;9.30;99.90;;;6.85;100.00;100268.06;4881359;28;100026;-63
2020/12/23 08:37:54;;;;;;;12.90;10.77;;;9.20;99.90;;;6.84;100.00;100261.88;4881488;28;99956;-63
2020/12/23 08:40:20;;;;;;;14.17;11.87;;;9.20;99.90;;;6.87;100.00;100258.13;4934113;28;101466;-63
2020/12/23 08:42:55;;;;;;;12.07;10.40;;;9.10;99.90;;;6.82;100.00;100266.50;4961857;28;100758;-62
2020/12/23 08:45:26;;;;;;;13.90;11.07;;;9.20;99.90;;;6.87;100.00;100271.41;4961344;28;100016;-63
2020/12/23 08:47:55;;;;;;;13.10;10.20;;;9.30;99.90;;;6.88;100.00;100270.44;4962161;28;100271;-63
2020/12/23 08:50:25;;;;;;;12.50;9.23;;;9.80;99.90;;;6.95;100.00;100260.94;4960977;28;100711;-63
2020/12/23 08:52:55;;;;;;;21.07;17.07;;;9.40;99.90;;;7.00;100.00;100265.88;4959262;28;101306;-63
2020/12/23 08:55:23;;;;;;;17.33;13.73;;;9.30;99.90;;;6.94;100.00;100263.72;4961150;28;100323;-63
2020/12/23 08:57:51;;;;;;;15.67;12.10;;;9.20;99.90;;;7.00;100.00;100260.53;4961454;28;99937;-63
2020/12/23 09:00:20;;;;;;;17.93;13.00;;;9.30;99.90;;;7.06;100.00;100263.47;4961696;28;101041;-65
2020/12/23 09:02:47;;;;;;;73.97;66.50;;;9.20;99.90;;;7.13;100.00;100263.78;4960524;28;100876;-64
2020/12/23 09:05:26;;;;;;;13.47;10.90;;;10.20;99.90;;;7.06;100.00;100265.31;4961511;28;100123;-64
2020/12/23 09:08:05;;;;;;;16.53;12.83;;;9.70;99.90;;;7.13;100.00;100264.63;4937943;28;99953;-63
2020/12/23 09:10:33;;;;;;;12.03;10.60;;;9.50;99.90;;;7.07;100.00;100259.00;4880345;28;101604;-63
2020/12/23 09:13:11;;;;;;;14.77;12.53;;;9.40;99.90;;;7.11;100.00;100263.94;4881053;28;101244;-63
2020/12/23 09:15:38;;;;;;;11.20;8.73;;;9.40;99.90;;;7.14;100.00;100265.47;4861485;28;100397;-63
2020/12/23 09:18:09;;;;;;;45.37;41.43;;;10.40;99.90;;;7.24;100.00;100268.16;4861469;28;100354;-63
2020/12/23 09:20:37;;;;;;;30.57;27.93;;;9.50;99.90;;;7.14;100.00;100266.31;4873621;28;100372;-65
2020/12/23 09:23:05;;;;;;;14.23;10.10;;;10.50;99.90;;;7.11;100.00;100261.28;4881010;28;101177;-63
2020/12/23 09:25:32;;;;;;;13.27;11.03;;;10.20;99.90;;;7.07;100.00;100257.19;4881243;28;100210;-63
2020/12/23 09:28:27;;;;;;;13.67;10.23;;;9.50;99.90;;;7.15;100.00;100256.53;4934074;28;100065;-63
2020/12/23 09:31:01;;;;;;;15.13;12.63;;;9.60;99.90;;;7.15;100.00;100261.84;4918961;28;101323;-63
2020/12/23 09:33:40;;;;;;;15.70;12.40;;;9.40;99.90;;;7.28;100.00;100265.09;4928360;28;102006;-62
2020/12/23 09:36:08;;;;;;;13.97;11.63;;;10.80;99.90;;;7.24;100.00;100261.00;4937323;28;100169;-63
2020/12/23 09:38:35;;;;;;;15.73;12.27;;;9.40;99.90;;;7.16;100.00;100261.72;4946245;28;100155;-63
2020/12/23 09:41:04;;;;;;;14.70;11.93;;;9.70;99.90;;;7.22;100.00;100261.16;4879834;28;101104;-62
2020/12/23 09:43:35;;;;;;;14.23;10.90;;;9.40;99.90;;;7.20;100.00;100252.47;4880687;28;100146;-63
2020/12/23 09:46:05;;;;;;;16.63;14.73;;;9.50;99.90;;;7.24;100.00;100247.72;4886902;28;100157;-63
2020/12/23 09:48:32;;;;;;;16.37;13.40;;;10.70;99.90;;;7.25;100.00;100244.06;4882776;28;100363;-64
2020/12/23 09:50:59;;;;;;;20.77;16.60;;;10.80;99.90;;;7.27;100.00;100243.94;4879760;28;101850;-63
2020/12/23 09:53:27;;;;;;;18.17;14.30;;;9.60;99.90;;;7.27;100.00;100244.78;4864037;28;101001;-63
2020/12/23 09:55:54;;;;;;;24.60;17.07;;;9.60;99.90;;;7.32;100.00;100244.34;4861469;28;100238;-64
2020/12/23 09:58:21;;;;;;;16.73;13.63;;;9.50;99.90;;;7.31;100.00;100243.50;4864063;28;100085;-62
2020/12/23 10:00:51;;;;;;;21.80;17.73;;;9.60;99.90;;;7.44;100.00;100228.09;4863255;28;101641;-63
2020/12/23 10:03:17;;;;;;;24.80;17.17;;;9.80;99.90;;;7.35;100.00;100231.63;4878401;28;102588;-63
2020/12/23 10:05:43;;;;;;;39.23;27.97;;;10.60;99.90;;;7.43;100.00;100225.56;4882758;28;99938;-60
2020/12/23 10:08:10;;;;;;;26.43;18.30;;;9.70;99.90;;;7.42;100.00;100232.72;4881588;28;100079;-63
2020/12/23 10:10:37;;;;;;;14.87;12.60;;;11.10;99.90;;;7.47;100.00;100217.19;4881737;28;101677;-63
2020/12/23 10:13:04;;;;;;;12.60;10.73;;;10.60;99.90;;;7.46;100.00;100210.19;4883052;28;100641;-63